Time;durP1;ratioP1;P1;durP2;ratioP2;P2;SDS_P1;SDS_P2;PMS_P1;PMS_P2;Temp;Humidity;BMP_temperature;BMP_pressure;BME280_temperature;BME280_humidity;BME280_pressure;Samples;Min_cycle;Max_cycle;Signal;HPM_P1;HPM_P2
2022/06/23 00:01:49;;;;;;;2.67;1.38;;;18.80;74.90;;;;;;4988268;28;20030;-81
2022/06/23 00:04:19;;;;;;;2.30;1.40;;;18.80;75.30;;;;;;4984346;28;20177;-80
2022/06/23 00:06:58;;;;;;;3.17;1.50;;;18.70;75.50;;;;;;4987267;28;20066;-80
2022/06/23 00:09:50;;;;;;;3.10;1.33;;;18.70;75.80;;;;;;4997765;28;20030;-80
2022/06/23 00:12:18;;;;;;;2.20;1.17;;;18.60;76.20;;;;;;4989595;28;20061;-80
2022/06/23 00:14:49;;;;;;;2.28;1.25;;;18.60;76.80;;;;;;4979815;28;20046;-80
2022/06/23 00:17:30;;;;;;;2.30;1.05;;;18.60;76.80;;;;;;4993361;28;20031;-78
2022/06/23 00:19:59;;;;;;;3.05;1.48;;;18.50;76.80;;;;;;4992719;28;20030;-80
2022/06/23 00:22:28;;;;;;;3.00;1.02;;;18.50;77.10;;;;;;4985258;28;20043;-80
2022/06/23 00:24:56;;;;;;;1.88;1.30;;;18.50;77.10;;;;;;4978627;28;20034;-79
2022/06/23 00:27:29;;;;;;;4.80;1.65;;;18.40;77.40;;;;;;4991383;28;20037;-79
2022/06/23 00:29:59;;;;;;;1.40;1.10;;;18.30;77.90;;;;;;4976772;28;20114;-80
2022/06/23 00:32:26;;;;;;;1.73;1.13;;;18.30;78.20;;;;;;4980330;28;20035;-78
2022/06/23 00:35:00;;;;;;;2.45;1.67;;;18.30;78.60;;;;;;4990975;28;20041;-80
2022/06/23 00:37:28;;;;;;;1.58;0.93;;;18.30;78.40;;;;;;5000883;28;20045;-81
2022/06/23 00:39:57;;;;;;;2.17;1.10;;;18.20;78.80;;;;;;4996491;28;20033;-81
2022/06/23 00:42:26;;;;;;;2.80;1.50;;;18.20;78.90;;;;;;4985330;28;20165;-79
2022/06/23 00:44:56;;;;;;;2.63;1.55;;;18.20;79.20;;;;;;4973666;28;20065;-80
2022/06/23 00:47:29;;;;;;;4.47;1.83;;;18.10;79.50;;;;;;4992831;28;20042;-79
2022/06/23 00:50:03;;;;;;;2.60;1.33;;;18.10;79.80;;;;;;4987064;28;20493;-79
2022/06/23 00:52:40;;;;;;;4.28;1.27;;;18.00;80.00;;;;;;4973043;28;20047;-80
2022/06/23 00:55:27;;;;;;;2.53;1.30;;;18.00;80.60;;;;;;4986513;28;20041;-81
2022/06/23 00:57:57;;;;;;;2.53;1.40;;;18.00;81.40;;;;;;4995227;28;20026;-79
2022/06/23 01:00:31;;;;;;;3.25;1.52;;;17.90;81.40;;;;;;4991000;28;20023;-83
2022/06/23 01:03:18;;;;;;;1.88;1.33;;;17.80;81.90;;;;;;4985932;28;20041;-81
2022/06/23 01:05:59;;;;;;;2.10;1.30;;;17.80;82.60;;;;;;4974840;28;20046;-82
2022/06/23 01:09:00;;;;;;;2.58;1.55;;;17.70;83.00;;;;;;4993298;28;20042;-80
2022/06/23 01:11:40;;;;;;;2.42;1.48;;;17.70;83.30;;;;;;4982703;28;20058;-80
2022/06/23 01:14:27;;;;;;;5.82;1.67;;;17.50;83.90;;;;;;4981311;28;20061;-80
2022/06/23 01:17:05;;;;;;;6.47;1.90;;;17.50;85.10;;;;;;4984203;28;20030;-83
2022/06/23 01:20:02;;;;;;;2.10;1.33;;;17.50;85.50;;;;;;5002257;28;20044;-81
2022/06/23 01:22:49;;;;;;;2.63;1.20;;;17.40;85.70;;;;;;4987796;28;20035;-80
2022/06/23 01:25:48;;;;;;;2.75;1.20;;;17.40;86.40;;;;;;4979150;28;20045;-81
2022/06/23 01:28:20;;;;;;;2.65;1.30;;;17.40;86.80;;;;;;4990939;28;20069;-79
2022/06/23 01:30:50;;;;;;;2.50;1.58;;;17.30;86.70;;;;;;4998820;28;20510;-79
2022/06/23 01:33:47;;;;;;;5.22;1.92;;;17.30;86.50;;;;;;4999950;28;20029;-79
2022/06/23 01:36:25;;;;;;;3.92;1.55;;;17.30;86.60;;;;;;4954110;28;21280;-80
2022/06/23 01:39:21;;;;;;;5.22;1.48;;;17.20;87.50;;;;;;4987553;28;20033;-81
2022/06/23 01:42:03;;;;;;;2.65;1.38;;;17.20;87.80;;;;;;4981726;28;20037;-79
2022/06/23 01:44:47;;;;;;;2.20;1.48;;;17.20;88.20;;;;;;4988792;28;20450;-80
2022/06/23 01:47:18;;;;;;;2.60;1.45;;;17.20;88.80;;;;;;4991946;28;20398;-78
2022/06/23 01:49:46;;;;;;;3.30;1.40;;;17.10;88.90;;;;;;4979245;28;20030;-79
2022/06/23 01:52:17;;;;;;;2.42;1.67;;;17.10;89.40;;;;;;4985270;28;20034;-79
2022/06/23 01:54:44;;;;;;;2.90;1.70;;;17.10;89.70;;;;;;4995836;28;20027;-80
2022/06/23 01:57:19;;;;;;;2.28;1.58;;;17.10;89.90;;;;;;4991493;28;20033;-81
2022/06/23 02:00:13;;;;;;;2.78;1.58;;;17.00;89.90;;;;;;4990676;28;20065;-82
2022/06/23 02:02:53;;;;;;;4.03;1.90;;;17.00;90.10;;;;;;4992624;28;20549;-81
2022/06/23 02:05:50;;;;;;;3.10;1.02;;;16.90;90.50;;;;;;4998197;28;20038;-80
2022/06/23 02:08:36;;;;;;;2.85;1.70;;;16.90;90.60;;;;;;4978177;28;20054;-83
2022/06/23 02:11:08;;;;;;;1.92;1.40;;;16.90;90.80;;;;;;4981695;28;20034;-79
2022/06/23 02:13:42;;;;;;;1.55;1.02;;;16.90;91.00;;;;;;4998758;28;20037;-79
2022/06/23 02:16:59;;;;;;;2.55;1.60;;;16.80;91.00;;;;;;4986742;28;20471;-79
2022/06/23 02:19:44;;;;;;;2.75;1.75;;;16.80;91.10;;;;;;4940977;29;20055;-80
2022/06/23 02:22:27;;;;;;;2.05;1.67;;;16.80;91.20;;;;;;4949410;28;20034;-79
2022/06/23 02:25:21;;;;;;;5.55;2.05;;;16.80;91.20;;;;;;4984384;28;20054;-81
2022/06/23 02:27:59;;;;;;;2.42;1.48;;;16.70;91.40;;;;;;4975956;28;20027;-79
2022/06/23 02:30:40;;;;;;;2.70;1.70;;;16.70;91.50;;;;;;4980599;28;20026;-78
2022/06/23 02:33:24;;;;;;;1.90;1.70;;;16.70;91.50;;;;;;4981839;28;20035;-80
2022/06/23 02:35:59;;;;;;;4.75;2.20;;;16.60;91.60;;;;;;4978764;28;20026;-78
2022/06/23 02:38:33;;;;;;;4.30;1.80;;;16.60;91.70;;;;;;4989079;28;20026;-80
2022/06/23 02:41:02;;;;;;;3.33;2.00;;;16.60;91.90;;;;;;4976965;28;20070;-79
2022/06/23 02:43:51;;;;;;;2.70;1.73;;;16.60;92.00;;;;;;4989700;28;20495;-79
2022/06/23 02:46:49;;;;;;;1.83;1.58;;;16.50;92.00;;;;;;4989850;28;20079;-83
2022/06/23 02:49:45;;;;;;;2.08;1.63;;;16.50;92.30;;;;;;4984655;28;20031;-79
2022/06/23 02:52:55;;;;;;;5.93;1.90;;;16.50;92.50;;;;;;4974822;28;20037;-83
2022/06/23 02:55:37;;;;;;;3.47;1.98;;;16.40;92.30;;;;;;4999327;28;20124;-79
2022/06/23 02:58:16;;;;;;;3.60;1.73;;;16.40;92.40;;;;;;4985039;28;20030;-82
2022/06/23 03:00:47;;;;;;;4.30;2.10;;;16.40;92.40;;;;;;4989036;28;20088;-79
2022/06/23 03:03:30;;;;;;;2.67;2.20;;;16.30;92.60;;;;;;4984385;28;20034;-80
2022/06/23 03:06:20;;;;;;;6.47;3.03;;;16.30;92.70;;;;;;4993355;28;20072;-78
2022/06/23 03:08:52;;;;;;;2.53;1.85;;;16.30;92.80;;;;;;4978969;28;20502;-80
2022/06/23 03:11:53;;;;;;;2.85;2.25;;;16.30;92.70;;;;;;4989012;28;20521;-79
2022/06/23 03:14:34;;;;;;;3.67;2.00;;;16.30;92.80;;;;;;4998438;28;20077;-79
2022/06/23 03:17:09;;;;;;;4.07;2.15;;;16.30;92.70;;;;;;4984985;28;20097;-79
2022/06/23 03:19:41;;;;;;;2.45;1.55;;;16.30;92.70;;;;;;4977686;28;20039;-78
2022/06/23 03:22:37;;;;;;;4.80;1.65;;;16.30;92.70;;;;;;4981580;28;20126;-79
2022/06/23 03:25:33;;;;;;;2.40;1.98;;;16.30;92.80;;;;;;4986225;28;20043;-82
2022/06/23 03:28:15;;;;;;;4.18;1.80;;;16.30;92.70;;;;;;4982761;28;20038;-79
2022/06/23 03:30:59;;;;;;;2.63;1.90;;;16.30;92.70;;;;;;4975476;28;20509;-78
2022/06/23 03:33:41;;;;;;;3.03;2.10;;;16.30;92.80;;;;;;4983733;28;20039;-85
2022/06/23 03:36:13;;;;;;;4.00;1.92;;;16.30;92.80;;;;;;4999506;28;20030;-84
2022/06/23 03:41:42;;;;;;;3.10;2.28;;;16.30;93.00;;;;;;4989780;28;20391;-83
2022/06/23 03:44:26;;;;;;;2.78;2.15;;;16.30;93.00;;;;;;4984035;28;20034;-78
2022/06/23 03:47:04;;;;;;;4.03;1.63;;;16.30;92.90;;;;;;4972335;28;20070;-78
2022/06/23 03:49:54;;;;;;;2.85;1.60;;;16.30;93.00;;;;;;4982405;28;20089;-81
2022/06/23 03:52:32;;;;;;;1.92;1.50;;;16.30;93.20;;;;;;4991756;28;20026;-81
2022/06/23 03:55:17;;;;;;;2.63;1.92;;;16.30;93.10;;;;;;4984176;28;20034;-79
2022/06/23 03:57:53;;;;;;;4.68;2.33;;;16.30;93.10;;;;;;4977226;28;20031;-78
2022/06/23 04:00:30;;;;;;;3.30;2.47;;;16.30;93.10;;;;;;4979566;28;20034;-84
2022/06/23 04:03:19;;;;;;;2.75;2.20;;;16.30;93.00;;;;;;4990710;28;20053;-78
2022/06/23 04:05:57;;;;;;;4.25;1.95;;;16.30;93.00;;;;;;4992975;28;20033;-81
2022/06/23 04:08:25;;;;;;;3.00;2.25;;;16.30;93.10;;;;;;4989955;28;20125;-78
2022/06/23 04:10:54;;;;;;;2.70;2.35;;;16.40;93.20;;;;;;4997186;28;20032;-84
2022/06/23 04:13:38;;;;;;;2.40;1.77;;;16.40;93.20;;;;;;4980213;28;20031;-82
2022/06/23 04:16:08;;;;;;;3.05;1.98;;;16.50;93.20;;;;;;4986328;28;20624;-78
2022/06/23 04:18:39;;;;;;;3.45;2.15;;;16.50;93.20;;;;;;5005218;28;20029;-79
2022/06/23 04:21:14;;;;;;;2.65;2.10;;;16.60;93.10;;;;;;4978751;28;20496;-78
2022/06/23 04:23:44;;;;;;;3.38;2.10;;;16.60;93.10;;;;;;4992090;28;20069;-78
2022/06/23 04:26:20;;;;;;;3.95;2.00;;;16.60;93.10;;;;;;4988964;28;20038;-80
2022/06/23 04:28:47;;;;;;;3.80;1.70;;;16.60;93.00;;;;;;4989856;28;20558;-78
2022/06/23 04:31:24;;;;;;;2.60;1.83;;;16.70;92.90;;;;;;4984873;28;20036;-83
2022/06/23 04:33:50;;;;;;;2.63;1.95;;;16.70;92.80;;;;;;4990579;28;20038;-78
2022/06/23 04:36:25;;;;;;;2.78;1.90;;;16.80;92.70;;;;;;4996141;28;20140;-81
2022/06/23 04:38:52;;;;;;;4.07;1.92;;;16.80;92.80;;;;;;4990338;28;20062;-82
2022/06/23 04:41:30;;;;;;;3.10;2.05;;;16.80;92.70;;;;;;4986976;28;20427;-79
2022/06/23 04:43:59;;;;;;;3.20;2.03;;;16.90;92.90;;;;;;4995169;28;20097;-78
2022/06/23 04:46:38;;;;;;;2.92;2.45;;;16.90;92.90;;;;;;4985548;28;20080;-79
2022/06/23 04:49:14;;;;;;;2.55;1.70;;;17.00;92.80;;;;;;4985039;28;20551;-79
2022/06/23 04:51:49;;;;;;;3.80;1.77;;;17.00;92.70;;;;;;4981082;28;20030;-79
2022/06/23 04:54:20;;;;;;;3.63;2.17;;;17.10;92.60;;;;;;4987592;28;20041;-82
2022/06/23 04:57:02;;;;;;;3.42;1.88;;;17.10;92.40;;;;;;4987391;28;20038;-82
2022/06/23 04:59:33;;;;;;;6.07;2.25;;;17.20;92.40;;;;;;4994795;28;20084;-78
2022/06/23 05:02:11;;;;;;;3.40;2.40;;;17.30;92.30;;;;;;4990418;28;20070;-78
2022/06/23 05:04:42;;;;;;;8.40;2.20;;;17.30;92.40;;;;;;4981341;28;20446;-79
2022/06/23 05:07:22;;;;;;;5.10;2.22;;;17.40;92.50;;;;;;4980669;28;20583;-79
2022/06/23 05:09:50;;;;;;;3.58;2.00;;;17.50;92.60;;;;;;4977972;28;20027;-80
2022/06/23 05:12:24;;;;;;;3.10;2.13;;;17.50;92.60;;;;;;4972765;28;20027;-82
2022/06/23 05:15:03;;;;;;;6.38;2.42;;;17.60;92.60;;;;;;4977375;28;20097;-80
2022/06/23 05:17:34;;;;;;;8.55;2.25;;;17.70;92.60;;;;;;4988834;28;20117;-79
2022/06/23 05:20:04;;;;;;;5.35;2.97;;;17.80;92.70;;;;;;4984832;28;20611;-78
2022/06/23 05:22:38;;;;;;;5.47;2.45;;;17.80;92.70;;;;;;4982201;28;20037;-81
2022/06/23 05:25:16;;;;;;;3.08;2.33;;;17.90;92.40;;;;;;4995940;28;20042;-81
2022/06/23 05:27:45;;;;;;;2.60;2.08;;;18.00;92.30;;;;;;4995278;28;20065;-78
2022/06/23 05:30:33;;;;;;;4.53;2.20;;;18.10;92.20;;;;;;4997343;28;20022;-83
2022/06/23 05:33:07;;;;;;;4.47;2.17;;;18.10;91.90;;;;;;4980475;28;20088;-82
2022/06/23 05:35:38;;;;;;;2.75;2.03;;;18.20;91.50;;;;;;4984083;28;20512;-81
2022/06/23 05:38:14;;;;;;;3.72;1.92;;;18.30;91.30;;;;;;4984934;28;20033;-79
2022/06/23 05:40:52;;;;;;;3.65;2.40;;;18.40;91.00;;;;;;4995725;28;20031;-80
2022/06/23 05:43:18;;;;;;;2.75;2.20;;;18.50;90.70;;;;;;4988399;28;20484;-81
2022/06/23 05:45:56;;;;;;;6.10;2.38;;;18.60;90.40;;;;;;4989134;28;20469;-79
2022/06/23 05:48:26;;;;;;;3.05;2.38;;;18.70;90.20;;;;;;4989790;28;20041;-77
2022/06/23 05:51:03;;;;;;;8.57;2.33;;;18.80;90.40;;;;;;4985029;28;20124;-78
2022/06/23 05:54:00;;;;;;;2.53;2.13;;;18.90;90.10;;;;;;4983604;28;20046;-79
2022/06/23 05:56:46;;;;;;;5.93;3.10;;;19.00;88.70;;;;;;4989657;28;20038;-78
2022/06/23 05:59:14;;;;;;;2.88;1.70;;;19.00;87.60;;;;;;4982905;28;20060;-79
2022/06/23 06:01:55;;;;;;;3.45;1.90;;;19.00;87.30;;;;;;4986888;28;20041;-79
2022/06/23 06:04:34;;;;;;;2.78;1.65;;;19.20;85.50;;;;;;4990539;28;20033;-79
2022/06/23 06:07:00;;;;;;;3.10;1.92;;;19.30;87.10;;;;;;4984049;28;20049;-79
2022/06/23 06:09:36;;;;;;;3.33;2.53;;;19.40;85.00;;;;;;4986063;28;20284;-81
2022/06/23 06:12:14;;;;;;;5.82;1.88;;;19.40;85.20;;;;;;4978526;28;20420;-80
2022/06/23 06:14:48;;;;;;;7.80;1.85;;;19.60;84.60;;;;;;4979859;28;20034;-79
2022/06/23 06:17:24;;;;;;;3.67;2.13;;;19.70;83.80;;;;;;4985475;28;20719;-79
2022/06/23 06:19:51;;;;;;;2.15;1.73;;;19.90;83.00;;;;;;4998222;28;20030;-79
2022/06/23 06:22:39;;;;;;;3.75;1.88;;;20.00;83.10;;;;;;4988640;28;20105;-80
2022/06/23 06:25:07;;;;;;;3.42;2.05;;;20.20;81.10;;;;;;4987562;28;20408;-83
2022/06/23 06:27:33;;;;;;;4.95;2.00;;;20.50;81.00;;;;;;4994899;28;20035;-80
2022/06/23 06:30:00;;;;;;;2.20;1.77;;;20.80;80.60;;;;;;4981919;28;20065;-79
2022/06/23 06:32:34;;;;;;;7.97;2.00;;;21.10;78.60;;;;;;4983082;28;20023;-79
2022/06/23 06:35:05;;;;;;;4.32;1.77;;;21.30;78.20;;;;;;4979354;28;20558;-80
2022/06/23 06:37:35;;;;;;;3.92;2.08;;;21.40;78.00;;;;;;4981829;28;20109;-78
2022/06/23 06:40:03;;;;;;;3.65;1.90;;;21.50;77.60;;;;;;4985668;28;20022;-80
2022/06/23 06:42:59;;;;;;;2.47;1.60;;;21.60;76.70;;;;;;4985778;28;20034;-83
2022/06/23 06:45:29;;;;;;;2.17;1.58;;;21.50;76.20;;;;;;4979727;28;20435;-79
2022/06/23 06:47:55;;;;;;;2.55;1.73;;;21.50;76.30;;;;;;4983638;28;20034;-80
2022/06/23 06:50:20;;;;;;;4.80;1.85;;;21.60;77.40;;;;;;4978792;28;20476;-79
2022/06/23 06:52:48;;;;;;;5.75;1.60;;;21.70;77.30;;;;;;4985518;28;20573;-78
2022/06/23 06:55:29;;;;;;;4.97;1.85;;;21.70;76.70;;;;;;4987136;28;20123;-82
2022/06/23 06:58:07;;;;;;;1.80;1.50;;;21.80;75.70;;;;;;4980213;28;20027;-80
2022/06/23 07:00:49;;;;;;;2.25;1.75;;;22.00;76.40;;;;;;4986421;28;20041;-80
2022/06/23 07:03:18;;;;;;;9.13;1.90;;;22.10;76.00;;;;;;4990493;28;20026;-80
2022/06/23 07:05:50;;;;;;;3.60;1.70;;;22.20;74.30;;;;;;4979460;28;20093;-78
2022/06/23 07:08:25;;;;;;;2.88;1.80;;;22.30;74.60;;;;;;4980728;28;20038;-82
2022/06/23 07:11:09;;;;;;;3.35;1.80;;;22.50;75.70;;;;;;4982145;28;20034;-81
2022/06/23 07:13:45;;;;;;;2.70;1.30;;;22.60;75.60;;;;;;4990070;28;20018;-81
2022/06/23 07:16:41;;;;;;;3.70;1.45;;;22.80;75.70;;;;;;4978263;28;20471;-79
2022/06/23 07:19:36;;;;;;;3.53;1.70;;;22.90;74.40;;;;;;4985490;28;20034;-80
2022/06/23 07:22:10;;;;;;;3.58;1.98;;;23.10;75.50;;;;;;4982352;28;20049;-81
2022/06/23 07:24:49;;;;;;;5.65;1.58;;;23.30;75.10;;;;;;4975935;28;20093;-80
2022/06/23 07:27:44;;;;;;;3.95;1.35;;;23.50;75.20;;;;;;4987399;28;20521;-80
2022/06/23 07:30:15;;;;;;;2.05;1.33;;;23.70;72.80;;;;;;4999773;28;20038;-80
2022/06/23 07:32:49;;;;;;;3.80;1.52;;;24.00;70.70;;;;;;4977336;28;20030;-84
2022/06/23 07:35:25;;;;;;;2.13;1.23;;;24.10;69.70;;;;;;4982965;28;20030;-82
2022/06/23 07:38:01;;;;;;;2.65;1.70;;;24.30;68.90;;;;;;4980864;28;20035;-81
2022/06/23 07:40:29;;;;;;;3.97;1.42;;;24.50;68.90;;;;;;4987366;28;20045;-83
2022/06/23 07:43:07;;;;;;;4.22;1.80;;;24.70;70.40;;;;;;4979246;28;20057;-81
2022/06/23 07:45:44;;;;;;;4.47;1.40;;;24.90;67.70;;;;;;4984073;28;20491;-81
2022/06/23 07:48:09;;;;;;;5.60;1.80;;;25.10;66.80;;;;;;4980858;28;20031;-84
2022/06/23 07:50:35;;;;;;;5.13;1.88;;;25.40;66.20;;;;;;4985060;28;20030;-82
2022/06/23 07:53:00;;;;;;;4.15;1.50;;;25.60;66.70;;;;;;4985075;28;20751;-81
2022/06/23 07:55:36;;;;;;;4.53;1.45;;;25.80;66.10;;;;;;4974774;28;20120;-81
2022/06/23 07:58:02;;;;;;;3.50;1.05;;;26.00;64.40;;;;;;4982624;28;20059;-81
2022/06/23 08:00:29;;;;;;;3.80;1.30;;;26.20;65.10;;;;;;4982398;28;20475;-82
2022/06/23 08:03:08;;;;;;;3.25;1.42;;;26.30;62.10;;;;;;4979077;28;20076;-82
2022/06/23 08:05:51;;;;;;;3.58;0.93;;;26.60;61.70;;;;;;4980904;28;20159;-80
2022/06/23 08:08:21;;;;;;;3.95;1.00;;;26.70;61.60;;;;;;4983806;28;21043;-83
2022/06/23 08:12:52;;;;;;;7.75;1.35;;;26.80;59.40;;;;;;4980304;28;20467;-83
2022/06/23 08:13:35;;;;;;;3.63;1.20;;;26.90;58.90;;;;;;4983417;28;20045;-81
2022/06/23 08:18:53;;;;;;;4.10;1.10;;;27.20;60.40;;;;;;4979517;28;20072;-82
2022/06/23 08:21:25;;;;;;;3.95;1.33;;;27.30;58.40;;;;;;4981569;28;20066;-82
2022/06/23 08:24:08;;;;;;;3.17;1.35;;;27.50;59.60;;;;;;4997059;28;20044;-82
2022/06/23 08:26:39;;;;;;;2.53;1.20;;;27.70;58.80;;;;;;4982450;28;20042;-81
2022/06/23 08:29:11;;;;;;;1.40;1.05;;;27.90;58.70;;;;;;4983821;28;20062;-84
2022/06/23 08:31:37;;;;;;;2.30;1.17;;;28.00;58.00;;;;;;4992392;28;20038;-82
2022/06/23 08:34:04;;;;;;;1.92;1.10;;;28.20;57.00;;;;;;4982887;28;20038;-82
2022/06/23 08:36:44;;;;;;;5.07;1.33;;;28.40;57.80;;;;;;4977890;28;20035;-83
2022/06/23 08:39:24;;;;;;;1.48;0.70;;;28.60;57.10;;;;;;4980096;28;20440;-83
2022/06/23 08:41:53;;;;;;;2.85;1.00;;;28.70;55.00;;;;;;4980009;28;20034;-87
2022/06/23 08:44:37;;;;;;;4.82;1.00;;;28.80;57.30;;;;;;4981761;28;20062;-82
2022/06/23 08:47:17;;;;;;;1.75;0.77;;;28.80;53.50;;;;;;4984063;28;20699;-84
2022/06/23 08:50:05;;;;;;;2.03;1.00;;;28.90;53.70;;;;;;4983582;28;20041;-80
2022/06/23 08:52:46;;;;;;;1.70;0.80;;;29.10;55.70;;;;;;4986725;28;20061;-82
2022/06/23 08:55:29;;;;;;;1.67;0.80;;;29.20;55.30;;;;;;4988242;28;20034;-83
2022/06/23 08:58:27;;;;;;;1.30;0.90;;;29.30;53.50;;;;;;4985803;28;20099;-85
2022/06/23 09:01:08;;;;;;;6.60;0.80;;;29.40;51.10;;;;;;4990340;28;20023;-82
2022/06/23 09:03:47;;;;;;;1.23;0.43;;;29.50;52.80;;;;;;4994230;28;20034;-81
2022/06/23 09:06:19;;;;;;;1.65;0.85;;;29.80;53.40;;;;;;4980729;28;20041;-84
2022/06/23 09:08:53;;;;;;;2.85;0.85;;;29.90;51.50;;;;;;4981440;28;20034;-83
2022/06/23 09:11:23;;;;;;;2.22;0.70;;;30.10;52.10;;;;;;4981477;28;20029;-83
2022/06/23 09:14:04;;;;;;;0.80;0.50;;;30.10;49.40;;;;;;4982458;28;20022;-80
2022/06/23 09:17:10;;;;;;;1.67;0.75;;;30.30;50.40;;;;;;4988673;28;20066;-84
2022/06/23 09:19:54;;;;;;;0.90;0.60;;;30.30;49.50;;;;;;4984503;28;20026;-84
2022/06/23 09:22:43;;;;;;;2.33;0.93;;;30.30;48.40;;;;;;4986010;28;20050;-82
2022/06/23 09:25:34;;;;;;;1.55;0.70;;;30.50;48.00;;;;;;4983544;28;20037;-81
2022/06/23 09:28:08;;;;;;;1.67;0.57;;;30.70;50.10;;;;;;4985181;28;20117;-81
2022/06/23 09:30:45;;;;;;;3.22;0.80;;;30.70;46.50;;;;;;4984636;28;20062;-82
2022/06/23 09:33:29;;;;;;;1.58;0.52;;;30.90;46.00;;;;;;4986131;28;20526;-85
2022/06/23 09:36:02;;;;;;;5.10;0.70;;;31.00;48.20;;;;;;4982757;28;20193;-83
2022/06/23 09:38:52;;;;;;;5.00;0.60;;;31.10;47.10;;;;;;4987327;28;20037;-83
2022/06/23 09:41:34;;;;;;;3.50;0.70;;;31.20;46.20;;;;;;4983722;28;20030;-81
2022/06/23 09:44:11;;;;;;;2.55;0.50;;;31.30;46.20;;;;;;4986677;28;20026;-80
2022/06/23 09:46:37;;;;;;;1.58;0.50;;;31.30;44.60;;;;;;4983091;28;20443;-81
2022/06/23 09:49:27;;;;;;;2.25;0.77;;;31.40;46.10;;;;;;4991004;28;20065;-81
2022/06/23 09:52:13;;;;;;;0.88;0.40;;;31.50;46.40;;;;;;4977868;28;20033;-81
2022/06/23 09:55:06;;;;;;;1.45;0.63;;;31.50;45.80;;;;;;5010553;28;20029;-85
2022/06/23 09:57:34;;;;;;;2.75;0.60;;;31.60;43.40;;;;;;4981728;28;20022;-83
2022/06/23 10:00:11;;;;;;;0.85;0.55;;;31.50;46.20;;;;;;4979973;28;20065;-83
2022/06/23 10:02:42;;;;;;;1.27;0.45;;;31.60;45.20;;;;;;4989903;28;20026;-83
2022/06/23 10:05:27;;;;;;;1.40;0.60;;;31.70;43.80;;;;;;4978533;28;20038;-83
2022/06/23 10:08:30;;;;;;;1.40;0.70;;;31.70;43.00;;;;;;4978454;28;20050;-83
2022/06/23 10:11:17;;;;;;;1.42;0.60;;;31.60;42.70;;;;;;4945096;28;20039;-83
2022/06/23 10:14:07;;;;;;;2.05;0.70;;;31.60;44.20;;;;;;4977984;28;20043;-80
2022/06/23 10:16:51;;;;;;;2.05;0.52;;;31.50;42.90;;;;;;4982092;28;20047;-83
2022/06/23 10:19:50;;;;;;;0.80;0.60;;;31.40;44.50;;;;;;4985961;28;20033;-82
2022/06/23 10:22:38;;;;;;;1.42;0.68;;;31.40;43.70;;;;;;4987362;28;20042;-80
2022/06/23 10:25:15;;;;;;;4.50;0.50;;;31.50;44.80;;;;;;4982584;28;20170;-81
2022/06/23 10:27:53;;;;;;;4.00;0.50;;;31.80;46.90;;;;;;4982167;28;20041;-80
2022/06/23 10:30:54;;;;;;;1.42;0.70;;;32.00;45.90;;;;;;4983684;28;20093;-79
2022/06/23 10:33:45;;;;;;;2.35;0.85;;;32.20;45.20;;;;;;4971781;28;20047;-83
2022/06/23 10:36:54;;;;;;;2.00;0.50;;;32.40;42.80;;;;;;4987686;28;20038;-84
2022/06/23 10:39:47;;;;;;;1.38;0.82;;;32.70;42.90;;;;;;4987568;28;20034;-80
2022/06/23 10:42:34;;;;;;;1.35;0.60;;;32.80;45.30;;;;;;5000000;28;20054;-87
2022/06/23 10:45:25;;;;;;;1.40;0.57;;;33.10;47.00;;;;;;4980518;28;20444;-79
2022/06/23 10:48:19;;;;;;;8.35;1.85;;;33.20;42.40;;;;;;4979750;28;20396;-81
2022/06/23 10:50:56;;;;;;;1.17;0.52;;;33.30;44.40;;;;;;4980779;28;20045;-82
2022/06/23 10:53:45;;;;;;;1.08;0.68;;;33.50;39.20;;;;;;4992633;28;20117;-82
2022/06/23 10:56:30;;;;;;;1.92;0.55;;;33.30;41.20;;;;;;4975318;28;20027;-80
2022/06/23 10:59:12;;;;;;;3.28;0.70;;;33.10;39.00;;;;;;4980287;28;20018;-81
2022/06/23 11:02:15;;;;;;;1.15;0.55;;;33.10;38.60;;;;;;4986828;28;20387;-81
2022/06/23 11:04:48;;;;;;;0.93;0.52;;;33.00;41.30;;;;;;4975690;28;20592;-81
2022/06/23 11:07:27;;;;;;;1.08;0.50;;;33.00;42.60;;;;;;4989215;28;20105;-83
2022/06/23 11:10:15;;;;;;;1.13;0.40;;;33.20;42.00;;;;;;4976800;28;20027;-74
2022/06/23 11:13:10;;;;;;;4.05;0.60;;;33.30;43.00;;;;;;4980840;28;20106;-82
2022/06/23 11:15:57;;;;;;;2.35;0.60;;;33.50;41.50;;;;;;4988063;28;20391;-81
2022/06/23 11:18:39;;;;;;;0.98;0.60;;;33.60;41.70;;;;;;4982518;28;20038;-83
2022/06/23 11:21:30;;;;;;;1.95;0.65;;;33.70;41.50;;;;;;4984441;28;20041;-80
2022/06/23 11:24:21;;;;;;;1.83;0.50;;;33.90;40.50;;;;;;4979981;28;20113;-82
2022/06/23 11:27:13;;;;;;;0.98;0.65;;;33.90;39.90;;;;;;4973369;28;20050;-81
2022/06/23 11:30:03;;;;;;;1.25;0.40;;;33.80;38.20;;;;;;4982068;28;20041;-82
2022/06/23 11:32:34;;;;;;;3.47;0.68;;;33.90;39.80;;;;;;4987690;28;20034;-82
2022/06/23 11:35:27;;;;;;;1.08;0.57;;;33.90;39.80;;;;;;4982515;28;20110;-80
2022/06/23 11:38:08;;;;;;;1.23;0.68;;;33.90;39.30;;;;;;4978970;28;20030;-79
2022/06/23 11:40:41;;;;;;;4.97;0.80;;;34.00;40.70;;;;;;4989939;28;20081;-79
2022/06/23 11:43:22;;;;;;;2.78;0.47;;;34.00;41.50;;;;;;4978899;28;20038;-81
2022/06/23 11:45:57;;;;;;;0.88;0.57;;;34.10;39.80;;;;;;4985748;28;20065;-84
2022/06/23 11:48:31;;;;;;;1.52;0.70;;;34.30;40.10;;;;;;4998289;28;20029;-83
2022/06/23 11:51:36;;;;;;;4.18;1.02;;;34.30;38.60;;;;;;4980025;28;20050;-80
2022/06/23 11:54:14;;;;;;;5.50;0.70;;;34.00;39.10;;;;;;4961880;28;20485;-83
2022/06/23 11:56:43;;;;;;;4.55;1.38;;;34.00;38.80;;;;;;4978074;28;20038;-80
2022/06/23 11:59:20;;;;;;;1.58;0.60;;;34.00;38.40;;;;;;4983559;28;20468;-79
2022/06/23 12:01:46;;;;;;;2.65;0.60;;;33.90;39.10;;;;;;4976742;28;20768;-84
2022/06/23 12:04:42;;;;;;;1.85;0.60;;;33.50;40.00;;;;;;4986056;28;20041;-81
2022/06/23 12:07:47;;;;;;;2.47;0.98;;;33.70;41.90;;;;;;4986575;28;20452;-82
2022/06/23 12:10:16;;;;;;;1.00;0.57;;;33.90;40.30;;;;;;4985397;28;20502;-81
2022/06/23 12:12:45;;;;;;;1.05;0.40;;;34.00;39.40;;;;;;4979370;28;20038;-82
2022/06/23 12:15:16;;;;;;;4.25;0.80;;;34.10;41.00;;;;;;4983169;28;20046;-82
2022/06/23 12:17:47;;;;;;;6.97;0.70;;;34.20;40.10;;;;;;4985617;28;20512;-83
2022/06/23 12:20:26;;;;;;;3.77;0.70;;;34.30;41.60;;;;;;4986439;28;20084;-81
2022/06/23 12:23:22;;;;;;;2.13;0.65;;;34.30;40.10;;;;;;4968073;28;20026;-79
2022/06/23 12:26:02;;;;;;;1.52;0.65;;;34.30;39.80;;;;;;4964835;28;20031;-83
2022/06/23 12:28:44;;;;;;;0.88;0.57;;;34.20;42.00;;;;;;4966404;28;20542;-81
2022/06/23 12:31:29;;;;;;;;;;;34.20;39.10;;;;;;4968344;28;20034;-83
2022/06/23 12:34:03;;;;;;;1.60;0.70;;;34.30;38.00;;;;;;5002465;28;19950;-82
2022/06/23 12:36:50;;;;;;;2.05;0.88;;;34.40;41.30;;;;;;4986947;28;20464;-79
2022/06/23 12:39:49;;;;;;;1.05;0.50;;;34.50;42.10;;;;;;4973521;28;20086;-81
2022/06/23 12:42:33;;;;;;;1.65;0.73;;;34.50;36.80;;;;;;4967954;28;20034;-81
2022/06/23 12:45:25;;;;;;;1.48;0.70;;;34.40;37.30;;;;;;4985306;28;20855;-79
2022/06/23 12:48:00;;;;;;;2.00;0.98;;;34.40;36.20;;;;;;4985864;28;20179;-79
2022/06/23 12:50:46;;;;;;;1.63;0.73;;;34.50;37.50;;;;;;4985172;28;20102;-81
2022/06/23 12:53:40;;;;;;;3.90;0.60;;;34.60;40.10;;;;;;4978926;28;20029;-81
2022/06/23 12:56:17;;;;;;;1.98;0.60;;;34.60;36.50;;;;;;4977789;28;20038;-79
2022/06/23 12:58:58;;;;;;;2.28;0.60;;;34.70;36.80;;;;;;4976415;28;20026;-81
2022/06/23 13:01:37;;;;;;;1.92;0.68;;;34.70;40.10;;;;;;4986868;28;20471;-81
2022/06/23 13:04:13;;;;;;;1.77;0.63;;;34.90;37.80;;;;;;4986217;28;20041;-82
2022/06/23 13:07:12;;;;;;;1.33;0.68;;;35.00;39.80;;;;;;4986824;28;20026;-80
2022/06/23 13:09:47;;;;;;;1.63;0.60;;;35.10;37.70;;;;;;4986090;28;20497;-79
2022/06/23 13:12:19;;;;;;;1.15;0.80;;;35.20;37.20;;;;;;4985884;28;20387;-81
2022/06/23 13:15:20;;;;;;;1.50;0.50;;;35.20;36.50;;;;;;4983601;28;20038;-81
2022/06/23 13:17:58;;;;;;;1.77;0.63;;;35.20;36.80;;;;;;4968354;28;20027;-79
2022/06/23 13:20:42;;;;;;;2.10;0.70;;;35.40;37.60;;;;;;4967023;28;20535;-80
2022/06/23 13:23:22;;;;;;;2.25;0.60;;;35.40;35.80;;;;;;4968243;28;20114;-79
2022/06/23 13:25:55;;;;;;;0.75;0.52;;;35.50;35.50;;;;;;4977616;28;20034;-81
2022/06/23 13:28:39;;;;;;;1.55;0.60;;;35.60;35.70;;;;;;4983202;28;20687;-79
2022/06/23 13:31:28;;;;;;;3.03;0.60;;;35.70;35.60;;;;;;4974104;28;20098;-79
2022/06/23 13:34:11;;;;;;;3.22;0.65;;;35.80;39.20;;;;;;4984523;28;20395;-78
2022/06/23 13:37:00;;;;;;;2.20;0.65;;;35.90;39.40;;;;;;4972973;28;20103;-83
2022/06/23 13:40:02;;;;;;;3.42;0.60;;;35.80;36.10;;;;;;4985736;28;20064;-81
2022/06/23 13:42:41;;;;;;;1.15;0.50;;;35.70;37.40;;;;;;4980401;28;20514;-79
2022/06/23 13:45:30;;;;;;;1.23;0.77;;;35.70;37.00;;;;;;4971698;28;20031;-79
2022/06/23 13:48:02;;;;;;;2.50;0.70;;;35.60;36.10;;;;;;4976880;28;20039;-80
2022/06/23 13:50:31;;;;;;;;;;;35.50;36.80;;;;;;4981630;28;20076;-83
2022/06/23 13:53:21;;;;;;;0.80;0.52;;;35.40;39.00;;;;;;4976969;28;19917;-78
2022/06/23 13:56:09;;;;;;;1.15;0.50;;;35.10;37.10;;;;;;4973120;28;20045;-81
2022/06/23 13:58:57;;;;;;;0.93;0.60;;;34.90;36.10;;;;;;4987666;28;20549;-79